createdAt,value
2023-02-22T00:01:21.876Z,75.25
2023-02-22T00:03:51.910Z,74.71
2023-02-22T00:06:19.708Z,75.20
2023-02-22T00:08:47.281Z,75.39
2023-02-22T00:11:15.039Z,74.95
2023-02-22T00:13:45.160Z,75.88
2023-02-22T00:16:19.541Z,76.53
2023-02-22T00:18:46.223Z,76.67
2023-02-22T00:21:13.312Z,76.48
2023-02-22T00:23:43.269Z,76.43
2023-02-22T00:26:09.954Z,76.43
2023-02-22T00:28:37.136Z,76.51
2023-02-22T00:31:05.325Z,77.06
2023-02-22T00:33:32.229Z,76.68
2023-02-22T00:35:58.919Z,77.74
2023-02-22T00:38:26.831Z,77.50
2023-02-22T00:40:53.346Z,77.78
2023-02-22T00:43:19.778Z,77.59
2023-02-22T00:45:49.144Z,77.29
2023-02-22T00:48:17.667Z,77.59
2023-02-22T00:50:44.131Z,78.07
2023-02-22T00:53:10.676Z,77.85
2023-02-22T00:55:37.694Z,78.51
2023-02-22T00:58:05.167Z,78.57
2023-02-22T01:00:31.580Z,78.75
2023-02-22T01:02:58.311Z,79.02
2023-02-22T01:05:26.446Z,79.29
2023-02-22T01:07:53.488Z,79.40
2023-02-22T01:10:21.000Z,78.92
2023-02-22T01:12:48.004Z,79.68
2023-02-22T01:15:15.484Z,80.32
2023-02-22T01:17:43.777Z,79.99
2023-02-22T01:20:12.595Z,80.59
2023-02-22T01:22:43.096Z,79.94
2023-02-22T01:25:10.725Z,80.11
2023-02-22T01:27:38.411Z,80.54
2023-02-22T01:30:08.541Z,81.13
2023-02-22T01:32:39.918Z,81.23
2023-02-22T01:35:08.529Z,81.56
2023-02-22T01:37:35.541Z,81.24
2023-02-22T01:40:02.964Z,80.86
2023-02-22T01:42:29.563Z,80.57
2023-02-22T01:45:14.909Z,81.14
2023-02-22T01:47:41.836Z,81.40
2023-02-22T01:50:10.642Z,80.93
2023-02-22T01:52:37.217Z,80.60
2023-02-22T01:55:03.949Z,80.59
2023-02-22T01:57:35.796Z,80.77
2023-02-22T02:00:12.343Z,81.36
2023-02-22T02:02:47.986Z,81.55
2023-02-22T02:05:17.798Z,81.37
2023-02-22T02:07:46.567Z,81.73
2023-02-22T02:10:15.364Z,81.94
2023-02-22T02:12:44.274Z,82.45
2023-02-22T02:15:16.855Z,84.02
2023-02-22T02:17:43.630Z,85.11
2023-02-22T02:20:23.880Z,84.51
2023-02-22T02:22:56.073Z,83.78
2023-02-22T02:25:22.485Z,83.88
2023-02-22T02:27:51.907Z,84.63
2023-02-22T02:30:39.424Z,84.33
2023-02-22T02:33:24.696Z,84.28
2023-02-22T02:36:11.449Z,84.23
2023-02-22T02:38:43.123Z,84.57
2023-02-22T02:41:13.592Z,84.58
2023-02-22T02:43:50.060Z,84.85
2023-02-22T02:46:16.524Z,85.46
2023-02-22T02:48:46.779Z,85.41
2023-02-22T02:51:14.845Z,86.20
2023-02-22T02:53:44.271Z,85.52
2023-02-22T02:56:10.855Z,83.99
2023-02-22T02:58:49.124Z,84.28
2023-02-22T03:01:33.337Z,85.58
2023-02-22T03:04:16.635Z,84.04
2023-02-22T03:06:49.440Z,83.92
2023-02-22T03:09:15.855Z,83.63
2023-02-22T03:11:48.545Z,84.10
2023-02-22T03:14:34.395Z,84.17
2023-02-22T03:17:29.813Z,84.85
2023-02-22T03:20:11.207Z,84.59
2023-02-22T03:22:44.111Z,83.90
2023-02-22T03:25:15.651Z,83.98
2023-02-22T03:27:48.995Z,85.07
2023-02-22T03:30:21.404Z,85.43
2023-02-22T03:32:53.107Z,84.04
2023-02-22T03:35:25.301Z,84.47
2023-02-22T03:37:56.975Z,85.28
2023-02-22T03:40:29.628Z,86.52
2023-02-22T03:43:02.063Z,85.86
2023-02-22T03:45:29.703Z,85.50
2023-02-22T03:48:10.253Z,85.37
2023-02-22T03:50:37.683Z,86.57
2023-02-22T03:53:07.434Z,86.27
2023-02-22T03:55:36.054Z,86.15
2023-02-22T03:58:06.650Z,86.43
2023-02-22T04:00:34.084Z,86.10
2023-02-22T04:03:01.213Z,88.06
2023-02-22T04:05:28.020Z,87.77
2023-02-22T04:07:57.082Z,87.26
2023-02-22T04:10:24.012Z,87.44
2023-02-22T04:12:51.066Z,87.32
2023-02-22T04:15:20.479Z,86.94
2023-02-22T04:17:48.962Z,86.51
2023-02-22T04:20:19.885Z,86.89
2023-02-22T04:23:02.021Z,86.52
2023-02-22T04:25:29.516Z,86.30
2023-02-22T04:27:56.567Z,86.41
2023-02-22T04:30:34.619Z,85.79
2023-02-22T04:33:02.614Z,85.81
2023-02-22T04:35:29.238Z,86.03
2023-02-22T04:37:55.745Z,85.64
2023-02-22T04:40:22.552Z,85.54
2023-02-22T04:42:48.999Z,86.19
2023-02-22T04:45:15.529Z,87.46
2023-02-22T04:47:42.780Z,87.38
2023-02-22T04:50:09.768Z,87.47
2023-02-22T04:52:36.354Z,87.88
2023-02-22T04:55:03.028Z,88.30
2023-02-22T04:57:29.671Z,88.65
2023-02-22T04:59:56.555Z,88.28
2023-02-22T05:02:24.848Z,89.01
2023-02-22T05:04:51.369Z,89.69
2023-02-22T05:07:17.891Z,90.37
2023-02-22T05:09:44.367Z,90.39
2023-02-22T05:12:10.873Z,91.21
2023-02-22T05:14:37.437Z,90.68
2023-02-22T05:17:04.498Z,90.50
2023-02-22T05:19:31.029Z,89.87
2023-02-22T05:21:57.732Z,89.44
2023-02-22T05:24:24.210Z,89.76
2023-02-22T05:26:51.406Z,90.14
2023-02-22T05:29:18.027Z,88.55
2023-02-22T05:31:44.567Z,89.14
2023-02-22T05:34:11.100Z,88.06
2023-02-22T05:36:37.681Z,89.20
2023-02-22T05:39:05.488Z,89.50
2023-02-22T05:41:32.001Z,89.00
2023-02-22T05:43:58.444Z,88.78
2023-02-22T05:46:25.342Z,89.02
2023-02-22T05:48:51.882Z,88.56
2023-02-22T05:51:19.636Z,88.69
2023-02-22T05:53:46.425Z,89.49
2023-02-22T05:56:12.902Z,89.94
2023-02-22T05:58:39.360Z,89.48
2023-02-22T06:01:05.853Z,89.48
2023-02-22T06:03:32.316Z,89.42
2023-02-22T06:05:58.913Z,89.61
2023-02-22T06:08:25.360Z,89.46
2023-02-22T06:10:51.791Z,89.00
2023-02-22T06:13:18.260Z,88.74
2023-02-22T06:15:44.712Z,87.71
2023-02-22T06:18:11.184Z,87.59
2023-02-22T06:20:37.707Z,87.48
2023-02-22T06:23:04.326Z,85.29
2023-02-22T06:25:31.438Z,84.78
2023-02-22T06:27:58.605Z,84.22
2023-02-22T06:30:25.908Z,83.39
2023-02-22T06:32:52.478Z,83.61
2023-02-22T06:35:19.212Z,85.43
2023-02-22T06:37:46.112Z,84.77
2023-02-22T06:40:13.167Z,84.16
2023-02-22T06:42:39.698Z,84.86
2023-02-22T06:45:06.566Z,84.91
2023-02-22T06:47:33.036Z,85.57
2023-02-22T06:50:00.964Z,85.56
2023-02-22T06:52:27.528Z,84.76
2023-02-22T06:54:54.033Z,83.40
2023-02-22T06:57:20.543Z,84.39
2023-02-22T06:59:46.979Z,83.20
2023-02-22T07:02:14.103Z,82.16
2023-02-22T07:04:43.240Z,81.63
2023-02-22T07:07:10.253Z,82.74
2023-02-22T07:09:36.711Z,81.76
2023-02-22T07:12:03.309Z,79.83
2023-02-22T07:14:29.800Z,78.94
2023-02-22T07:16:56.272Z,77.41
2023-02-22T07:19:22.750Z,75.62
2023-02-22T07:21:50.821Z,73.47
2023-02-22T07:24:17.249Z,70.60
2023-02-22T07:26:43.782Z,69.87
2023-02-22T07:29:11.326Z,67.40
2023-02-22T07:31:38.189Z,67.04
2023-02-22T07:34:04.651Z,62.83
2023-02-22T07:36:31.120Z,61.76
2023-02-22T07:38:57.733Z,61.87
2023-02-22T07:41:25.012Z,58.19
2023-02-22T07:43:51.472Z,58.00
2023-02-22T07:46:18.003Z,56.38
2023-02-22T07:48:44.421Z,57.16
2023-02-22T07:51:11.251Z,57.82
2023-02-22T07:53:37.874Z,55.77
2023-02-22T07:56:05.412Z,55.68
2023-02-22T07:58:32.314Z,53.94
2023-02-22T08:01:02.108Z,54.17
2023-02-22T08:03:30.699Z,55.06
2023-02-22T08:05:58.640Z,56.41
2023-02-22T08:08:25.156Z,56.22
2023-02-22T08:10:52.216Z,54.95
2023-02-22T08:13:19.133Z,52.12
2023-02-22T08:15:47.162Z,51.75
2023-02-22T08:18:17.305Z,54.13
2023-02-22T08:20:44.685Z,55.40
2023-02-22T08:23:12.658Z,54.92
2023-02-22T08:25:39.091Z,56.49
2023-02-22T08:28:06.949Z,52.85
2023-02-22T08:30:35.037Z,52.89
2023-02-22T08:33:05.108Z,51.99
2023-02-22T08:35:32.517Z,53.12
2023-02-22T08:38:00.401Z,50.69
2023-02-22T08:40:30.979Z,50.47
2023-02-22T08:42:57.502Z,50.04
2023-02-22T08:45:24.053Z,50.77
2023-02-22T08:47:50.869Z,51.29
2023-02-22T08:50:19.306Z,52.22
2023-02-22T08:52:45.809Z,51.37
2023-02-22T08:55:12.519Z,50.92
2023-02-22T08:57:38.944Z,52.04
2023-02-22T09:00:05.765Z,49.07
2023-02-22T09:02:32.293Z,49.80
2023-02-22T09:04:58.789Z,50.38
2023-02-22T09:07:25.271Z,49.91
2023-02-22T09:09:51.684Z,49.35
2023-02-22T09:12:18.139Z,48.69
2023-02-22T09:14:44.592Z,47.97
2023-02-22T09:17:11.115Z,45.14
2023-02-22T09:19:37.544Z,46.16
2023-02-22T09:22:04.016Z,45.75
2023-02-22T09:24:30.660Z,47.61
2023-02-22T09:26:59.233Z,44.98
2023-02-22T09:29:26.487Z,44.41
2023-02-22T09:31:54.062Z,44.68
2023-02-22T09:34:22.644Z,43.32
2023-02-22T09:36:49.810Z,42.46
2023-02-22T09:39:17.115Z,40.47
2023-02-22T09:41:52.763Z,43.72
2023-02-22T09:44:29.617Z,46.04
2023-02-22T09:46:58.008Z,43.44
2023-02-22T09:49:47.359Z,41.03
2023-02-22T09:52:18.827Z,41.54
2023-02-22T09:54:51.749Z,43.54
2023-02-22T09:57:22.752Z,43.63
2023-02-22T09:59:57.653Z,43.42
2023-02-22T10:02:28.343Z,44.99
2023-02-22T10:04:59.761Z,43.24
2023-02-22T10:07:30.503Z,43.37
2023-02-22T10:09:57.682Z,41.57
2023-02-22T10:12:33.751Z,41.97
2023-02-22T10:15:21.289Z,40.03
2023-02-22T10:18:07.979Z,40.79
2023-02-22T10:20:46.581Z,42.54
2023-02-22T10:23:33.276Z,44.15
2023-02-22T10:26:09.273Z,41.58
2023-02-22T10:28:39.542Z,42.19
2023-02-22T10:31:08.109Z,42.47
2023-02-22T10:33:47.830Z,40.73
2023-02-22T10:36:22.163Z,39.85
2023-02-22T10:38:53.508Z,41.25
2023-02-22T10:41:38.132Z,40.24
2023-02-22T10:44:04.709Z,41.64
2023-02-22T10:46:32.017Z,40.97
2023-02-22T10:49:02.614Z,39.93
2023-02-22T10:51:29.484Z,39.86
2023-02-22T10:53:58.747Z,41.73
2023-02-22T10:56:26.379Z,43.90
2023-02-22T10:59:04.339Z,42.62
2023-02-22T11:01:30.776Z,41.64
2023-02-22T11:03:58.337Z,41.42
2023-02-22T11:06:25.325Z,41.89
2023-02-22T11:08:52.158Z,41.27
2023-02-22T11:11:23.720Z,40.44
2023-02-22T11:13:56.698Z,40.69
2023-02-22T11:16:28.181Z,39.64
2023-02-22T11:19:02.034Z,40.51
2023-02-22T11:21:30.498Z,39.79
2023-02-22T11:24:04.814Z,39.37
2023-02-22T11:26:37.376Z,40.22
2023-02-22T11:29:09.651Z,39.82
2023-02-22T11:31:42.044Z,41.37
2023-02-22T11:34:24.670Z,39.97
2023-02-22T11:36:51.231Z,39.55
2023-02-22T11:39:28.297Z,41.20
2023-02-22T11:41:58.153Z,41.70
2023-02-22T11:44:26.491Z,42.67
2023-02-22T11:46:55.746Z,40.71
2023-02-22T11:49:33.271Z,38.84
2023-02-22T11:52:18.606Z,38.74
2023-02-22T11:54:54.388Z,39.06
2023-02-22T11:57:36.260Z,37.86
2023-02-22T12:00:15.357Z,36.73
2023-02-22T12:03:01.655Z,37.15
2023-02-22T12:05:40.552Z,36.59
2023-02-22T12:08:19.418Z,36.65
2023-02-22T12:10:59.168Z,39.72
2023-02-22T12:13:28.680Z,39.14
2023-02-22T12:16:02.264Z,36.24
2023-02-22T12:18:34.774Z,34.89
2023-02-22T12:21:03.145Z,35.13
2023-02-22T12:23:44.735Z,36.62
2023-02-22T12:26:14.520Z,36.51
2023-02-22T12:28:44.099Z,36.69
2023-02-22T12:31:20.218Z,36.35
2023-02-22T12:33:50.161Z,35.01
2023-02-22T12:36:19.269Z,36.26
2023-02-22T12:38:49.144Z,37.26
2023-02-22T12:41:22.539Z,40.07
2023-02-22T12:43:52.350Z,36.57
2023-02-22T12:46:27.045Z,37.58
2023-02-22T12:49:13.929Z,36.20
2023-02-22T12:51:43.456Z,36.24
2023-02-22T12:54:13.717Z,37.68
2023-02-22T12:56:49.239Z,35.75
2023-02-22T12:59:19.396Z,36.78
2023-02-22T13:01:50.763Z,35.56
2023-02-22T13:04:20.928Z,36.93
2023-02-22T13:07:06.878Z,35.04
2023-02-22T13:09:33.331Z,37.57
2023-02-22T13:12:06.044Z,37.65
2023-02-22T13:14:32.539Z,36.90
2023-02-22T13:17:31.244Z,34.85
2023-02-22T13:20:10.058Z,35.01
2023-02-22T13:23:02.915Z,36.21
2023-02-22T13:25:38.190Z,35.97
2023-02-22T13:28:07.421Z,34.63
2023-02-22T13:30:33.879Z,34.96
2023-02-22T13:33:03.277Z,33.53
2023-02-22T13:35:48.645Z,33.39
2023-02-22T13:38:15.164Z,34.78
2023-02-22T13:40:47.643Z,33.87
2023-02-22T13:43:26.294Z,33.17
2023-02-22T13:45:52.728Z,33.47
2023-02-22T13:48:31.473Z,34.98
2023-02-22T13:51:16.476Z,34.64
2023-02-22T13:53:43.842Z,35.04
2023-02-22T13:56:11.717Z,35.76
2023-02-22T13:58:55.014Z,35.33
2023-02-22T14:01:40.417Z,35.37
2023-02-22T14:04:25.567Z,34.41
2023-02-22T14:06:52.066Z,34.95
2023-02-22T14:09:39.104Z,35.20
2023-02-22T14:12:05.853Z,34.79
2023-02-22T14:14:32.284Z,35.19
2023-02-22T14:17:22.154Z,35.74
2023-02-22T14:20:00.311Z,36.89
2023-02-22T14:22:29.028Z,34.90
2023-02-22T14:24:57.060Z,36.16
2023-02-22T14:27:23.542Z,35.35
2023-02-22T14:29:54.901Z,36.12
2023-02-22T14:32:30.486Z,36.33
2023-02-22T14:34:58.663Z,36.97
2023-02-22T14:37:30.524Z,37.41
2023-02-22T14:40:15.506Z,37.73
2023-02-22T14:42:44.384Z,38.31
2023-02-22T14:45:17.101Z,39.25
2023-02-22T14:47:50.362Z,38.75
2023-02-22T14:50:16.803Z,39.64
2023-02-22T14:52:46.445Z,39.99
2023-02-22T14:55:33.373Z,40.28
2023-02-22T14:58:09.701Z,41.67
2023-02-22T15:00:45.849Z,41.44
2023-02-22T15:03:38.462Z,40.86
2023-02-22T15:06:05.825Z,41.48
2023-02-22T15:08:34.184Z,42.69
2023-02-22T15:11:02.295Z,43.72
2023-02-22T15:13:32.929Z,43.82
2023-02-22T15:16:02.233Z,44.08
2023-02-22T15:18:43.082Z,43.19
2023-02-22T15:21:17.487Z,43.67
2023-02-22T15:23:45.796Z,44.64
2023-02-22T15:26:20.441Z,45.60
2023-02-22T15:28:47.523Z,46.31
2023-02-22T15:31:14.814Z,46.25
2023-02-22T15:33:41.298Z,47.80
2023-02-22T15:36:15.853Z,48.43
2023-02-22T15:38:47.135Z,49.64
2023-02-22T15:41:20.581Z,50.32
2023-02-22T15:43:57.355Z,51.59
2023-02-22T15:46:23.927Z,51.72
2023-02-22T15:49:19.386Z,50.69
2023-02-22T15:51:49.127Z,51.46
2023-02-22T15:54:26.517Z,53.05
2023-02-22T15:56:56.940Z,54.09
2023-02-22T15:59:29.545Z,55.50
2023-02-22T16:01:57.173Z,56.70
2023-02-22T16:04:25.950Z,56.37
2023-02-22T16:06:54.365Z,57.85
2023-02-22T16:09:23.133Z,58.00
2023-02-22T16:11:49.863Z,57.47
2023-02-22T16:14:27.536Z,57.78
2023-02-22T16:17:15.789Z,58.24
2023-02-22T16:19:45.002Z,60.05
2023-02-22T16:22:26.867Z,59.87
2023-02-22T16:24:54.514Z,60.68
2023-02-22T16:27:22.830Z,60.44
2023-02-22T16:30:25.468Z,62.09
2023-02-22T16:32:53.567Z,62.23
2023-02-22T16:35:20.269Z,62.83
2023-02-22T16:37:51.375Z,62.58
2023-02-22T16:40:24.493Z,63.02
2023-02-22T16:42:51.579Z,63.30
2023-02-22T16:45:21.912Z,64.83
2023-02-22T16:47:52.635Z,65.54
2023-02-22T16:50:19.788Z,66.43
2023-02-22T16:52:46.291Z,66.57
2023-02-22T16:55:14.245Z,66.96
2023-02-22T16:57:41.662Z,66.52
2023-02-22T17:00:13.039Z,67.92
2023-02-22T17:02:40.003Z,67.72
2023-02-22T17:05:07.908Z,68.59
2023-02-22T17:07:34.455Z,68.65
2023-02-22T17:10:00.954Z,68.35
2023-02-22T17:12:28.969Z,69.10
2023-02-22T17:14:55.777Z,69.85
2023-02-22T17:17:22.248Z,69.95
2023-02-22T17:19:48.725Z,70.53
2023-02-22T17:22:22.186Z,71.29
2023-02-22T17:24:48.840Z,70.20
2023-02-22T17:27:15.395Z,71.50
2023-02-22T17:29:44.057Z,71.29
2023-02-22T17:32:10.853Z,72.00
2023-02-22T17:34:37.329Z,72.66
2023-02-22T17:37:04.825Z,71.79
2023-02-22T17:39:31.320Z,71.87
2023-02-22T17:41:57.836Z,72.60
2023-02-22T17:44:25.178Z,72.46
2023-02-22T17:46:52.874Z,72.04
2023-02-22T17:49:19.380Z,73.11
2023-02-22T17:51:49.466Z,73.71
2023-02-22T17:54:17.489Z,73.60
2023-02-22T17:56:43.987Z,73.79
2023-02-22T17:59:10.655Z,73.29
2023-02-22T18:01:37.469Z,73.27
2023-02-22T18:04:05.080Z,73.04
2023-02-22T18:06:32.737Z,73.47
2023-02-22T18:09:00.109Z,73.29
2023-02-22T18:11:27.741Z,73.68
2023-02-22T18:13:55.797Z,74.73
2023-02-22T18:16:22.687Z,75.09
2023-02-22T18:18:49.762Z,74.69
2023-02-22T18:21:16.318Z,76.51
2023-02-22T18:23:44.794Z,78.01
2023-02-22T18:26:21.678Z,78.33
2023-02-22T18:28:51.531Z,77.84
2023-02-22T18:31:18.925Z,77.08
2023-02-22T18:33:46.695Z,78.06
2023-02-22T18:36:14.265Z,78.49
2023-02-22T18:38:44.879Z,78.85
2023-02-22T18:41:12.745Z,78.40
2023-02-22T18:43:39.375Z,79.11
2023-02-22T18:46:07.158Z,79.99
2023-02-22T18:48:33.889Z,81.13
2023-02-22T18:51:01.544Z,80.91
2023-02-22T18:53:31.288Z,81.19
2023-02-22T18:56:02.664Z,80.75
2023-02-22T18:58:32.712Z,80.40
2023-02-22T19:01:00.127Z,80.07
2023-02-22T19:03:27.120Z,80.03
2023-02-22T19:05:54.714Z,80.24
2023-02-22T19:08:21.177Z,79.34
2023-02-22T19:10:50.599Z,79.88
2023-02-22T19:13:17.446Z,80.43
2023-02-22T19:15:43.896Z,80.33
2023-02-22T19:18:10.476Z,80.48
2023-02-22T19:20:36.906Z,80.89
2023-02-22T19:23:03.350Z,80.85
2023-02-22T19:25:29.902Z,80.36
2023-02-22T19:27:56.838Z,80.70
2023-02-22T19:30:24.771Z,80.15
2023-02-22T19:32:51.504Z,80.33
2023-02-22T19:35:27.112Z,81.58
2023-02-22T19:37:54.750Z,82.34
2023-02-22T19:40:21.966Z,81.15
2023-02-22T19:42:49.136Z,81.67
2023-02-22T19:45:15.631Z,82.17
2023-02-22T19:47:42.282Z,82.45
2023-02-22T19:50:08.967Z,83.23
2023-02-22T19:52:35.537Z,84.67
2023-02-22T19:55:02.008Z,84.66
2023-02-22T19:57:29.842Z,86.65
2023-02-22T19:59:56.324Z,85.43
2023-02-22T20:02:27.221Z,84.18
2023-02-22T20:04:55.216Z,84.03
2023-02-22T20:07:21.656Z,85.20
2023-02-22T20:09:49.725Z,84.41
2023-02-22T20:12:16.347Z,84.09
2023-02-22T20:14:42.874Z,84.07
2023-02-22T20:17:10.246Z,83.59
2023-02-22T20:19:37.634Z,82.80
2023-02-22T20:22:04.216Z,82.15
2023-02-22T20:24:30.648Z,83.55
2023-02-22T20:26:58.271Z,85.19
2023-02-22T20:29:29.553Z,86.44
2023-02-22T20:31:57.791Z,85.30
2023-02-22T20:34:26.442Z,84.78
2023-02-22T20:36:53.355Z,84.98
2023-02-22T20:39:19.815Z,85.69
2023-02-22T20:41:46.487Z,85.09
2023-02-22T20:44:13.953Z,86.75
2023-02-22T20:46:40.693Z,86.28
2023-02-22T20:49:08.282Z,86.40
2023-02-22T20:51:35.351Z,85.74
2023-02-22T20:54:01.943Z,84.73
2023-02-22T20:56:29.766Z,84.66
2023-02-22T20:58:56.849Z,85.56
2023-02-22T21:01:23.561Z,86.66
2023-02-22T21:03:50.192Z,86.97
2023-02-22T21:06:18.072Z,86.54
2023-02-22T21:08:45.516Z,86.93
2023-02-22T21:11:13.424Z,86.52
2023-02-22T21:13:40.096Z,87.61
2023-02-22T21:16:07.401Z,87.14
2023-02-22T21:18:33.871Z,87.08
2023-02-22T21:21:10.042Z,86.40
2023-02-22T21:23:37.268Z,85.94
2023-02-22T21:26:03.850Z,86.77
2023-02-22T21:28:49.887Z,86.67
2023-02-22T21:31:17.360Z,87.12
2023-02-22T21:33:44.130Z,87.28
2023-02-22T21:36:14.752Z,86.67
2023-02-22T21:38:42.252Z,87.41
2023-02-22T21:41:15.606Z,87.30
2023-02-22T21:43:48.693Z,87.59
2023-02-22T21:46:15.298Z,88.10
2023-02-22T21:48:45.052Z,88.19
2023-02-22T21:51:15.523Z,87.74
2023-02-22T21:53:46.072Z,87.25
2023-02-22T21:56:15.066Z,87.47
2023-02-22T21:58:44.981Z,87.90
2023-02-22T22:01:17.127Z,88.11
2023-02-22T22:03:44.821Z,89.27
2023-02-22T22:06:11.710Z,90.30
2023-02-22T22:08:40.084Z,90.60
2023-02-22T22:11:10.524Z,90.30
2023-02-22T22:13:40.347Z,90.16
2023-02-22T22:16:08.390Z,90.51
2023-02-22T22:18:36.292Z,90.81
2023-02-22T22:21:16.185Z,90.74
2023-02-22T22:23:45.437Z,90.40
2023-02-22T22:26:11.958Z,90.03
2023-02-22T22:28:39.762Z,89.90
2023-02-22T22:31:07.246Z,88.87
2023-02-22T22:33:34.575Z,89.06
2023-02-22T22:36:01.118Z,89.20
2023-02-22T22:38:28.982Z,89.05
2023-02-22T22:41:01.725Z,89.69
2023-02-22T22:43:29.370Z,89.75
2023-02-22T22:45:58.404Z,89.68
2023-02-22T22:48:25.135Z,89.76
2023-02-22T22:51:06.416Z,89.54
2023-02-22T22:53:33.656Z,89.10
2023-02-22T22:56:03.780Z,89.89
2023-02-22T22:58:33.986Z,90.40
2023-02-22T23:01:05.839Z,91.81
2023-02-22T23:03:36.924Z,92.09
2023-02-22T23:06:04.494Z,92.40
2023-02-22T23:08:42.921Z,92.36
2023-02-22T23:11:10.597Z,92.05
2023-02-22T23:13:38.004Z,92.10
2023-02-22T23:16:07.824Z,91.51
2023-02-22T23:18:34.410Z,91.28
2023-02-22T23:21:05.296Z,91.70
2023-02-22T23:23:31.752Z,91.02
2023-02-22T23:26:11.324Z,91.37
2023-02-22T23:28:38.812Z,90.64
2023-02-22T23:31:13.979Z,90.60
2023-02-22T23:33:41.492Z,91.50
2023-02-22T23:36:08.663Z,93.76
2023-02-22T23:38:35.111Z,93.49
2023-02-22T23:41:02.787Z,92.60
2023-02-22T23:43:32.527Z,92.48
2023-02-22T23:46:10.657Z,93.50
2023-02-22T23:48:43.081Z,92.82
2023-02-22T23:51:09.858Z,94.54
2023-02-22T23:53:38.055Z,93.92
2023-02-22T23:56:13.065Z,93.02
2023-02-22T23:58:40.388Z,92.63
